sensor_id;sensor_type;location;lat;lon;timestamp;pressure;altitude;pressure_sealevel;temperature
27715;BMP280;16051;53.024;8.630;2022-08-18T00:01:22;101055.84;;;20.49
27715;BMP280;16051;53.024;8.630;2022-08-18T00:05:24;101055.25;;;20.38
27715;BMP280;16051;53.024;8.630;2022-08-18T00:09:28;101061.41;;;20.36
27715;BMP280;16051;53.024;8.630;2022-08-18T00:13:45;101073.78;;;20.22
27715;BMP280;16051;53.024;8.630;2022-08-18T00:17:47;101067.34;;;20.08
27715;BMP280;16051;53.024;8.630;2022-08-18T00:21:50;101067.13;;;20.06
27715;BMP280;16051;53.024;8.630;2022-08-18T00:25:54;101069.91;;;20.06
27715;BMP280;16051;53.024;8.630;2022-08-18T00:30:01;101068.09;;;20.09
27715;BMP280;16051;53.024;8.630;2022-08-18T00:34:19;101067.88;;;20.07
27715;BMP280;16051;53.024;8.630;2022-08-18T00:38:21;101058.75;;;20.01
27715;BMP280;16051;53.024;8.630;2022-08-18T00:42:28;101059.06;;;19.97
27715;BMP280;16051;53.024;8.630;2022-08-18T00:46:35;101078.69;;;19.97
27715;BMP280;16051;53.024;8.630;2022-08-18T00:50:43;101080.28;;;19.93
27715;BMP280;16051;53.024;8.630;2022-08-18T00:54:48;101084.28;;;19.97
27715;BMP280;16051;53.024;8.630;2022-08-18T00:59:19;101083.81;;;19.93
27715;BMP280;16051;53.024;8.630;2022-08-18T01:03:22;101080.00;;;19.96
27715;BMP280;16051;53.024;8.630;2022-08-18T01:07:29;101094.53;;;19.95
27715;BMP280;16051;53.024;8.630;2022-08-18T01:11:34;101083.59;;;19.91
27715;BMP280;16051;53.024;8.630;2022-08-18T01:15:39;101095.50;;;19.97
27715;BMP280;16051;53.024;8.630;2022-08-18T01:19:41;101086.75;;;20.06
27715;BMP280;16051;53.024;8.630;2022-08-18T01:24:06;101095.66;;;20.05
27715;BMP280;16051;53.024;8.630;2022-08-18T01:28:09;101092.56;;;20.08
27715;BMP280;16051;53.024;8.630;2022-08-18T01:32:14;101103.47;;;20.12
27715;BMP280;16051;53.024;8.630;2022-08-18T01:36:25;101105.22;;;20.15
27715;BMP280;16051;53.024;8.630;2022-08-18T01:40:30;101107.66;;;20.05
27715;BMP280;16051;53.024;8.630;2022-08-18T01:44:33;101101.06;;;20.03
27715;BMP280;16051;53.024;8.630;2022-08-18T01:48:38;101107.47;;;19.98
27715;BMP280;16051;53.024;8.630;2022-08-18T01:52:54;101097.03;;;19.98
27715;BMP280;16051;53.024;8.630;2022-08-18T01:56:58;101092.69;;;19.97
27715;BMP280;16051;53.024;8.630;2022-08-18T02:01:01;101084.41;;;19.86
27715;BMP280;16051;53.024;8.630;2022-08-18T02:05:09;101078.38;;;19.82
27715;BMP280;16051;53.024;8.630;2022-08-18T02:09:13;101073.97;;;19.87
27715;BMP280;16051;53.024;8.630;2022-08-18T02:13:16;101079.59;;;19.87
27715;BMP280;16051;53.024;8.630;2022-08-18T02:17:21;101076.47;;;19.90
27715;BMP280;16051;53.024;8.630;2022-08-18T02:21:23;101077.63;;;19.82
27715;BMP280;16051;53.024;8.630;2022-08-18T02:25:25;101064.38;;;19.82
27715;BMP280;16051;53.024;8.630;2022-08-18T02:29:29;101068.91;;;19.85
27715;BMP280;16051;53.024;8.630;2022-08-18T02:33:31;101062.84;;;19.81
27715;BMP280;16051;53.024;8.630;2022-08-18T02:37:34;101065.66;;;19.81
27715;BMP280;16051;53.024;8.630;2022-08-18T02:41:36;101063.13;;;19.78
27715;BMP280;16051;53.024;8.630;2022-08-18T02:45:39;101063.53;;;19.87
27715;BMP280;16051;53.024;8.630;2022-08-18T02:49:42;101059.75;;;19.85
27715;BMP280;16051;53.024;8.630;2022-08-18T02:53:46;101063.78;;;19.89
27715;BMP280;16051;53.024;8.630;2022-08-18T02:57:48;101055.81;;;19.93
27715;BMP280;16051;53.024;8.630;2022-08-18T03:01:54;101060.06;;;20.00
27715;BMP280;16051;53.024;8.630;2022-08-18T03:05:57;101060.44;;;19.91
27715;BMP280;16051;53.024;8.630;2022-08-18T03:09:59;101058.59;;;19.93
27715;BMP280;16051;53.024;8.630;2022-08-18T03:14:02;101062.75;;;19.87
27715;BMP280;16051;53.024;8.630;2022-08-18T03:18:06;101050.78;;;19.86
27715;BMP280;16051;53.024;8.630;2022-08-18T03:22:08;101065.28;;;19.90
27715;BMP280;16051;53.024;8.630;2022-08-18T03:26:14;101069.81;;;19.93
27715;BMP280;16051;53.024;8.630;2022-08-18T03:30:16;101066.72;;;19.97
27715;BMP280;16051;53.024;8.630;2022-08-18T03:34:20;101076.94;;;19.94
27715;BMP280;16051;53.024;8.630;2022-08-18T03:38:22;101086.31;;;19.97
27715;BMP280;16051;53.024;8.630;2022-08-18T03:42:24;101086.28;;;20.02
27715;BMP280;16051;53.024;8.630;2022-08-18T03:46:26;101099.53;;;20.02
27715;BMP280;16051;53.024;8.630;2022-08-18T03:50:32;101108.47;;;20.00
27715;BMP280;16051;53.024;8.630;2022-08-18T03:54:46;101105.66;;;20.00
27715;BMP280;16051;53.024;8.630;2022-08-18T03:58:51;101091.94;;;19.97
27715;BMP280;16051;53.024;8.630;2022-08-18T04:02:53;101081.19;;;20.01
27715;BMP280;16051;53.024;8.630;2022-08-18T04:07:00;101079.84;;;20.07
27715;BMP280;16051;53.024;8.630;2022-08-18T04:11:04;101087.56;;;20.01
27715;BMP280;16051;53.024;8.630;2022-08-18T04:15:07;101079.91;;;20.02
27715;BMP280;16051;53.024;8.630;2022-08-18T04:19:10;101075.53;;;20.06
27715;BMP280;16051;53.024;8.630;2022-08-18T04:23:14;101087.25;;;20.05
27715;BMP280;16051;53.024;8.630;2022-08-18T04:27:18;101095.38;;;20.08
27715;BMP280;16051;53.024;8.630;2022-08-18T04:31:20;101088.47;;;20.09
27715;BMP280;16051;53.024;8.630;2022-08-18T04:35:24;101101.06;;;20.03
27715;BMP280;16051;53.024;8.630;2022-08-18T04:39:30;101101.28;;;20.05
27715;BMP280;16051;53.024;8.630;2022-08-18T04:43:33;101107.47;;;19.98
27715;BMP280;16051;53.024;8.630;2022-08-18T04:47:37;101102.94;;;19.95
27715;BMP280;16051;53.024;8.630;2022-08-18T04:51:52;101100.34;;;19.97
27715;BMP280;16051;53.024;8.630;2022-08-18T04:56:20;101115.38;;;19.99
27715;BMP280;16051;53.024;8.630;2022-08-18T05:00:26;101111.13;;;19.93
27715;BMP280;16051;53.024;8.630;2022-08-18T05:04:28;101113.97;;;19.87
27715;BMP280;16051;53.024;8.630;2022-08-18T05:08:31;101107.78;;;19.94
27715;BMP280;16051;53.024;8.630;2022-08-18T05:12:35;101104.44;;;19.96
27715;BMP280;16051;53.024;8.630;2022-08-18T05:16:43;101109.75;;;19.99
27715;BMP280;16051;53.024;8.630;2022-08-18T05:20:45;101111.00;;;20.04
27715;BMP280;16051;53.024;8.630;2022-08-18T05:24:48;101117.63;;;20.01
27715;BMP280;16051;53.024;8.630;2022-08-18T05:28:51;101113.56;;;20.02
27715;BMP280;16051;53.024;8.630;2022-08-18T05:32:54;101112.31;;;19.97
27715;BMP280;16051;53.024;8.630;2022-08-18T05:37:12;101125.06;;;19.98
27715;BMP280;16051;53.024;8.630;2022-08-18T05:41:23;101135.00;;;19.99
27715;BMP280;16051;53.024;8.630;2022-08-18T05:45:30;101138.00;;;20.01
27715;BMP280;16051;53.024;8.630;2022-08-18T05:49:35;101137.41;;;20.08
27715;BMP280;16051;53.024;8.630;2022-08-18T05:53:39;101127.94;;;20.11
27715;BMP280;16051;53.024;8.630;2022-08-18T05:58:03;101134.31;;;20.12
27715;BMP280;16051;53.024;8.630;2022-08-18T06:02:15;101137.06;;;20.18
27715;BMP280;16051;53.024;8.630;2022-08-18T06:06:24;101138.06;;;20.20
27715;BMP280;16051;53.024;8.630;2022-08-18T06:10:29;101133.66;;;20.25
27715;BMP280;16051;53.024;8.630;2022-08-18T06:14:32;101140.22;;;20.33
27715;BMP280;16051;53.024;8.630;2022-08-18T06:18:49;101142.72;;;20.36
27715;BMP280;16051;53.024;8.630;2022-08-18T06:23:14;101143.84;;;20.28
27715;BMP280;16051;53.024;8.630;2022-08-18T06:27:32;101151.28;;;20.44
27715;BMP280;16051;53.024;8.630;2022-08-18T06:31:47;101152.97;;;20.52
27715;BMP280;16051;53.024;8.630;2022-08-18T06:36:02;101150.75;;;20.64
27715;BMP280;16051;53.024;8.630;2022-08-18T06:40:10;101155.41;;;20.61
27715;BMP280;16051;53.024;8.630;2022-08-18T06:44:20;101163.97;;;20.69
27715;BMP280;16051;53.024;8.630;2022-08-18T06:48:49;101165.16;;;20.74
27715;BMP280;16051;53.024;8.630;2022-08-18T06:52:58;101175.56;;;20.79
27715;BMP280;16051;53.024;8.630;2022-08-18T06:57:00;101180.31;;;20.84
27715;BMP280;16051;53.024;8.630;2022-08-18T07:01:06;101176.09;;;20.77
27715;BMP280;16051;53.024;8.630;2022-08-18T07:05:26;101187.47;;;20.66
27715;BMP280;16051;53.024;8.630;2022-08-18T07:09:44;101178.22;;;20.71
27715;BMP280;16051;53.024;8.630;2022-08-18T07:13:49;101189.66;;;20.73
27715;BMP280;16051;53.024;8.630;2022-08-18T07:18:03;101195.06;;;20.71
27715;BMP280;16051;53.024;8.630;2022-08-18T07:22:12;101185.50;;;20.80
27715;BMP280;16051;53.024;8.630;2022-08-18T07:26:17;101197.63;;;20.88
27715;BMP280;16051;53.024;8.630;2022-08-18T07:30:32;101201.88;;;20.94
27715;BMP280;16051;53.024;8.630;2022-08-18T07:34:41;101209.53;;;20.94
27715;BMP280;16051;53.024;8.630;2022-08-18T07:38:51;101195.66;;;21.01
27715;BMP280;16051;53.024;8.630;2022-08-18T07:43:05;101193.69;;;21.15
27715;BMP280;16051;53.024;8.630;2022-08-18T07:47:16;101189.69;;;21.24
27715;BMP280;16051;53.024;8.630;2022-08-18T07:51:24;101204.44;;;21.30
27715;BMP280;16051;53.024;8.630;2022-08-18T07:55:33;101198.28;;;21.63
27715;BMP280;16051;53.024;8.630;2022-08-18T07:59:47;101206.72;;;21.76
27715;BMP280;16051;53.024;8.630;2022-08-18T08:04:00;101207.38;;;21.82
27715;BMP280;16051;53.024;8.630;2022-08-18T08:08:18;101225.84;;;21.78
27715;BMP280;16051;53.024;8.630;2022-08-18T08:12:35;101220.31;;;21.72
27715;BMP280;16051;53.024;8.630;2022-08-18T08:16:47;101231.56;;;21.72
27715;BMP280;16051;53.024;8.630;2022-08-18T08:20:54;101232.97;;;21.66
27715;BMP280;16051;53.024;8.630;2022-08-18T08:25:10;101227.41;;;21.60
27715;BMP280;16051;53.024;8.630;2022-08-18T08:29:28;101238.03;;;21.67
27715;BMP280;16051;53.024;8.630;2022-08-18T08:33:37;101232.78;;;21.77
27715;BMP280;16051;53.024;8.630;2022-08-18T08:37:56;101239.25;;;21.72
27715;BMP280;16051;53.024;8.630;2022-08-18T08:42:08;101240.31;;;21.69
27715;BMP280;16051;53.024;8.630;2022-08-18T08:46:22;101246.25;;;21.65
27715;BMP280;16051;53.024;8.630;2022-08-18T08:50:34;101235.00;;;21.65
27715;BMP280;16051;53.024;8.630;2022-08-18T08:54:45;101247.78;;;21.66
27715;BMP280;16051;53.024;8.630;2022-08-18T08:58:56;101241.41;;;21.66
27715;BMP280;16051;53.024;8.630;2022-08-18T09:03:33;101233.75;;;21.79
27715;BMP280;16051;53.024;8.630;2022-08-18T09:08:25;101236.28;;;21.96
27715;BMP280;16051;53.024;8.630;2022-08-18T09:12:53;101243.88;;;22.14
27715;BMP280;16051;53.024;8.630;2022-08-18T09:17:22;101226.13;;;22.32
27715;BMP280;16051;53.024;8.630;2022-08-18T09:21:40;101233.91;;;22.52
27715;BMP280;16051;53.024;8.630;2022-08-18T09:25:50;101231.63;;;22.77
27715;BMP280;16051;53.024;8.630;2022-08-18T09:29:57;101228.94;;;22.72
27715;BMP280;16051;53.024;8.630;2022-08-18T09:34:37;101234.25;;;22.75
27715;BMP280;16051;53.024;8.630;2022-08-18T09:38:50;101226.78;;;22.78
27715;BMP280;16051;53.024;8.630;2022-08-18T09:43:16;101231.84;;;22.79
27715;BMP280;16051;53.024;8.630;2022-08-18T09:47:59;101237.81;;;23.10
27715;BMP280;16051;53.024;8.630;2022-08-18T09:57:20;101237.28;;;23.45
27715;BMP280;16051;53.024;8.630;2022-08-18T10:01:40;101239.44;;;23.80
27715;BMP280;16051;53.024;8.630;2022-08-18T10:10:30;101239.56;;;24.16
27715;BMP280;16051;53.024;8.630;2022-08-18T10:19:31;101229.56;;;24.43
27715;BMP280;16051;53.024;8.630;2022-08-18T10:23:50;101226.03;;;24.94
27715;BMP280;16051;53.024;8.630;2022-08-18T10:27:54;101230.28;;;25.46
27715;BMP280;16051;53.024;8.630;2022-08-18T10:36:51;101231.53;;;25.00
27715;BMP280;16051;53.024;8.630;2022-08-18T10:41:00;101232.09;;;24.62
27715;BMP280;16051;53.024;8.630;2022-08-18T10:45:11;101228.69;;;24.56
27715;BMP280;16051;53.024;8.630;2022-08-18T10:49:21;101227.47;;;24.80
27715;BMP280;16051;53.024;8.630;2022-08-18T10:53:35;101222.53;;;25.31
27715;BMP280;16051;53.024;8.630;2022-08-18T10:58:09;101218.63;;;25.95
27715;BMP280;16051;53.024;8.630;2022-08-18T11:02:39;101230.50;;;25.93
27715;BMP280;16051;53.024;8.630;2022-08-18T11:06:50;101235.75;;;26.27
27715;BMP280;16051;53.024;8.630;2022-08-18T11:10:54;101234.31;;;27.06
27715;BMP280;16051;53.024;8.630;2022-08-18T11:15:16;101240.09;;;27.23
27715;BMP280;16051;53.024;8.630;2022-08-18T11:19:20;101251.59;;;27.58
27715;BMP280;16051;53.024;8.630;2022-08-18T11:23:24;101261.22;;;27.30
27715;BMP280;16051;53.024;8.630;2022-08-18T11:27:32;101251.16;;;26.49
27715;BMP280;16051;53.024;8.630;2022-08-18T11:31:35;101254.44;;;25.77
27715;BMP280;16051;53.024;8.630;2022-08-18T11:35:51;101259.09;;;25.37
27715;BMP280;16051;53.024;8.630;2022-08-18T11:39:56;101255.38;;;25.50
27715;BMP280;16051;53.024;8.630;2022-08-18T11:44:00;101257.38;;;25.19
27715;BMP280;16051;53.024;8.630;2022-08-18T11:48:19;101256.59;;;25.11
27715;BMP280;16051;53.024;8.630;2022-08-18T11:52:25;101247.97;;;25.24
27715;BMP280;16051;53.024;8.630;2022-08-18T11:56:34;101248.34;;;25.28
27715;BMP280;16051;53.024;8.630;2022-08-18T12:00:56;101254.34;;;25.17
27715;BMP280;16051;53.024;8.630;2022-08-18T12:05:00;101237.19;;;25.00
27715;BMP280;16051;53.024;8.630;2022-08-18T12:09:17;101248.88;;;25.11
27715;BMP280;16051;53.024;8.630;2022-08-18T12:13:24;101240.41;;;25.19
27715;BMP280;16051;53.024;8.630;2022-08-18T12:17:30;101246.81;;;25.19
27715;BMP280;16051;53.024;8.630;2022-08-18T12:21:36;101231.25;;;25.94
27715;BMP280;16051;53.024;8.630;2022-08-18T12:25:39;101234.50;;;26.68
27715;BMP280;16051;53.024;8.630;2022-08-18T12:29:42;101241.78;;;26.24
27715;BMP280;16051;53.024;8.630;2022-08-18T12:33:46;101225.19;;;26.13
27715;BMP280;16051;53.024;8.630;2022-08-18T12:37:49;101229.72;;;26.08
27715;BMP280;16051;53.024;8.630;2022-08-18T12:41:51;101229.53;;;26.14
27715;BMP280;16051;53.024;8.630;2022-08-18T12:45:53;101225.41;;;25.92
27715;BMP280;16051;53.024;8.630;2022-08-18T12:49:57;101222.03;;;25.93
27715;BMP280;16051;53.024;8.630;2022-08-18T12:53:59;101227.47;;;26.07
27715;BMP280;16051;53.024;8.630;2022-08-18T12:58:01;101235.22;;;25.99
27715;BMP280;16051;53.024;8.630;2022-08-18T13:02:32;101229.75;;;25.55
27715;BMP280;16051;53.024;8.630;2022-08-18T13:06:39;101233.28;;;25.33
27715;BMP280;16051;53.024;8.630;2022-08-18T13:10:41;101233.97;;;24.95
27715;BMP280;16051;53.024;8.630;2022-08-18T13:14:44;101242.28;;;25.09
27715;BMP280;16051;53.024;8.630;2022-08-18T13:18:46;101224.66;;;24.80
27715;BMP280;16051;53.024;8.630;2022-08-18T13:22:50;101218.03;;;24.70
27715;BMP280;16051;53.024;8.630;2022-08-18T13:26:57;101223.19;;;24.50
27715;BMP280;16051;53.024;8.630;2022-08-18T13:31:00;101221.19;;;24.23
27715;BMP280;16051;53.024;8.630;2022-08-18T13:35:03;101209.16;;;24.01
27715;BMP280;16051;53.024;8.630;2022-08-18T13:39:22;101219.81;;;24.16
27715;BMP280;16051;53.024;8.630;2022-08-18T13:43:31;101234.25;;;24.13
27715;BMP280;16051;53.024;8.630;2022-08-18T13:47:39;101233.59;;;24.20
27715;BMP280;16051;53.024;8.630;2022-08-18T13:51:43;101225.91;;;24.28
27715;BMP280;16051;53.024;8.630;2022-08-18T13:55:48;101223.84;;;24.28
27715;BMP280;16051;53.024;8.630;2022-08-18T13:59:56;101219.06;;;24.52
27715;BMP280;16051;53.024;8.630;2022-08-18T14:03:59;101224.81;;;24.74
27715;BMP280;16051;53.024;8.630;2022-08-18T14:08:04;101228.94;;;24.73
27715;BMP280;16051;53.024;8.630;2022-08-18T14:12:38;101252.94;;;24.52
27715;BMP280;16051;53.024;8.630;2022-08-18T14:17:04;101260.53;;;24.28
27715;BMP280;16051;53.024;8.630;2022-08-18T14:21:09;101264.91;;;24.37
27715;BMP280;16051;53.024;8.630;2022-08-18T14:25:30;101268.94;;;24.85
27715;BMP280;16051;53.024;8.630;2022-08-18T14:29:52;101259.28;;;25.31
27715;BMP280;16051;53.024;8.630;2022-08-18T14:33:54;101259.88;;;25.45
27715;BMP280;16051;53.024;8.630;2022-08-18T14:37:56;101246.91;;;25.72
27715;BMP280;16051;53.024;8.630;2022-08-18T14:42:17;101243.69;;;25.99
27715;BMP280;16051;53.024;8.630;2022-08-18T14:46:31;101248.97;;;26.10
27715;BMP280;16051;53.024;8.630;2022-08-18T14:50:37;101260.47;;;26.12
27715;BMP280;16051;53.024;8.630;2022-08-18T14:54:39;101262.75;;;25.98
27715;BMP280;16051;53.024;8.630;2022-08-18T14:58:42;101269.75;;;25.89
27715;BMP280;16051;53.024;8.630;2022-08-18T15:02:58;101266.91;;;25.97
27715;BMP280;16051;53.024;8.630;2022-08-18T15:07:01;101256.69;;;26.02
27715;BMP280;16051;53.024;8.630;2022-08-18T15:11:11;101255.38;;;26.03
27715;BMP280;16051;53.024;8.630;2022-08-18T15:15:14;101260.13;;;25.92
27715;BMP280;16051;53.024;8.630;2022-08-18T15:19:18;101240.13;;;25.68
27715;BMP280;16051;53.024;8.630;2022-08-18T15:23:22;101250.31;;;25.63
27715;BMP280;16051;53.024;8.630;2022-08-18T15:27:42;101244.94;;;25.29
27715;BMP280;16051;53.024;8.630;2022-08-18T15:32:18;101235.41;;;24.89
27715;BMP280;16051;53.024;8.630;2022-08-18T15:36:23;101248.28;;;24.62
27715;BMP280;16051;53.024;8.630;2022-08-18T15:40:27;101252.56;;;24.83
27715;BMP280;16051;53.024;8.630;2022-08-18T15:44:36;101237.91;;;24.57
27715;BMP280;16051;53.024;8.630;2022-08-18T15:48:38;101242.56;;;24.46
27715;BMP280;16051;53.024;8.630;2022-08-18T15:52:52;101234.09;;;24.46
27715;BMP280;16051;53.024;8.630;2022-08-18T15:57:03;101216.41;;;24.46
27715;BMP280;16051;53.024;8.630;2022-08-18T16:01:08;101223.44;;;24.24
27715;BMP280;16051;53.024;8.630;2022-08-18T16:05:11;101222.34;;;24.07
27715;BMP280;16051;53.024;8.630;2022-08-18T16:09:14;101219.94;;;24.11
27715;BMP280;16051;53.024;8.630;2022-08-18T16:13:18;101229.59;;;24.15
27715;BMP280;16051;53.024;8.630;2022-08-18T16:17:21;101215.06;;;24.11
27715;BMP280;16051;53.024;8.630;2022-08-18T16:21:23;101215.75;;;24.04
27715;BMP280;16051;53.024;8.630;2022-08-18T16:25:30;101218.13;;;23.92
27715;BMP280;16051;53.024;8.630;2022-08-18T16:30:08;101232.50;;;23.81
27715;BMP280;16051;53.024;8.630;2022-08-18T16:34:17;101240.38;;;23.75
27715;BMP280;16051;53.024;8.630;2022-08-18T16:38:20;101233.81;;;23.80
27715;BMP280;16051;53.024;8.630;2022-08-18T16:42:25;101238.16;;;23.81
27715;BMP280;16051;53.024;8.630;2022-08-18T16:46:39;101246.47;;;23.66
27715;BMP280;16051;53.024;8.630;2022-08-18T16:50:44;101254.47;;;23.55
27715;BMP280;16051;53.024;8.630;2022-08-18T16:54:48;101251.69;;;23.41
27715;BMP280;16051;53.024;8.630;2022-08-18T16:58:52;101246.38;;;23.38
27715;BMP280;16051;53.024;8.630;2022-08-18T17:03:21;101255.16;;;23.34
27715;BMP280;16051;53.024;8.630;2022-08-18T17:07:41;101267.94;;;23.15
27715;BMP280;16051;53.024;8.630;2022-08-18T17:11:45;101257.13;;;23.05
27715;BMP280;16051;53.024;8.630;2022-08-18T17:15:49;101259.75;;;22.90
27715;BMP280;16051;53.024;8.630;2022-08-18T17:20:00;101268.44;;;22.66
27715;BMP280;16051;53.024;8.630;2022-08-18T17:24:07;101258.47;;;22.65
27715;BMP280;16051;53.024;8.630;2022-08-18T17:28:17;101268.78;;;22.49
27715;BMP280;16051;53.024;8.630;2022-08-18T17:32:44;101257.50;;;22.36
27715;BMP280;16051;53.024;8.630;2022-08-18T17:36:51;101265.31;;;22.30
27715;BMP280;16051;53.024;8.630;2022-08-18T17:40:56;101267.81;;;22.21
27715;BMP280;16051;53.024;8.630;2022-08-18T17:45:09;101263.03;;;22.16
27715;BMP280;16051;53.024;8.630;2022-08-18T17:49:26;101266.03;;;22.18
27715;BMP280;16051;53.024;8.630;2022-08-18T17:53:51;101264.06;;;21.99
27715;BMP280;16051;53.024;8.630;2022-08-18T17:57:59;101258.97;;;21.85
27715;BMP280;16051;53.024;8.630;2022-08-18T18:02:13;101261.72;;;21.72
27715;BMP280;16051;53.024;8.630;2022-08-18T18:06:27;101266.28;;;21.75
27715;BMP280;16051;53.024;8.630;2022-08-18T18:10:37;101271.03;;;21.67
27715;BMP280;16051;53.024;8.630;2022-08-18T18:14:43;101261.91;;;21.60
27715;BMP280;16051;53.024;8.630;2022-08-18T18:18:53;101256.59;;;21.57
27715;BMP280;16051;53.024;8.630;2022-08-18T18:23:15;101271.44;;;21.39
27715;BMP280;16051;53.024;8.630;2022-08-18T18:27:29;101268.50;;;21.31
27715;BMP280;16051;53.024;8.630;2022-08-18T18:31:32;101269.56;;;21.28
27715;BMP280;16051;53.024;8.630;2022-08-18T18:35:49;101260.81;;;21.32
27715;BMP280;16051;53.024;8.630;2022-08-18T18:39:57;101255.00;;;21.30
27715;BMP280;16051;53.024;8.630;2022-08-18T18:44:25;101266.84;;;21.23
27715;BMP280;16051;53.024;8.630;2022-08-18T18:48:40;101262.38;;;21.14
27715;BMP280;16051;53.024;8.630;2022-08-18T18:52:56;101266.28;;;21.05
27715;BMP280;16051;53.024;8.630;2022-08-18T18:57:23;101267.19;;;20.95
27715;BMP280;16051;53.024;8.630;2022-08-18T19:01:42;101274.78;;;20.81
27715;BMP280;16051;53.024;8.630;2022-08-18T19:06:05;101285.41;;;20.88
27715;BMP280;16051;53.024;8.630;2022-08-18T19:10:18;101286.09;;;20.76
27715;BMP280;16051;53.024;8.630;2022-08-18T19:14:30;101290.44;;;20.52
27715;BMP280;16051;53.024;8.630;2022-08-18T19:18:39;101295.41;;;20.65
27715;BMP280;16051;53.024;8.630;2022-08-18T19:22:49;101286.25;;;20.59
27715;BMP280;16051;53.024;8.630;2022-08-18T19:26:59;101291.00;;;20.45
27715;BMP280;16051;53.024;8.630;2022-08-18T19:31:10;101293.06;;;20.45
27715;BMP280;16051;53.024;8.630;2022-08-18T19:35:21;101291.38;;;20.36
27715;BMP280;16051;53.024;8.630;2022-08-18T19:39:31;101294.47;;;20.33
27715;BMP280;16051;53.024;8.630;2022-08-18T19:43:44;101288.19;;;20.21
27715;BMP280;16051;53.024;8.630;2022-08-18T19:47:55;101283.81;;;20.26
27715;BMP280;16051;53.024;8.630;2022-08-18T19:52:12;101291.28;;;20.18
27715;BMP280;16051;53.024;8.630;2022-08-18T19:56:44;101281.56;;;20.19
27715;BMP280;16051;53.024;8.630;2022-08-18T20:00:56;101280.94;;;20.07
27715;BMP280;16051;53.024;8.630;2022-08-18T20:05:18;101279.19;;;20.04
27715;BMP280;16051;53.024;8.630;2022-08-18T20:09:51;101269.16;;;19.84
27715;BMP280;16051;53.024;8.630;2022-08-18T20:13:59;101273.00;;;19.81
27715;BMP280;16051;53.024;8.630;2022-08-18T20:18:21;101268.75;;;19.75
27715;BMP280;16051;53.024;8.630;2022-08-18T20:22:33;101266.59;;;19.86
27715;BMP280;16051;53.024;8.630;2022-08-18T20:26:46;101270.69;;;19.85
27715;BMP280;16051;53.024;8.630;2022-08-18T20:31:03;101279.66;;;19.78
27715;BMP280;16051;53.024;8.630;2022-08-18T20:35:20;101286.56;;;19.72
27715;BMP280;16051;53.024;8.630;2022-08-18T20:39:42;101284.03;;;19.74
27715;BMP280;16051;53.024;8.630;2022-08-18T20:43:46;101278.72;;;19.70
27715;BMP280;16051;53.024;8.630;2022-08-18T20:53:01;101289.31;;;19.47
27715;BMP280;16051;53.024;8.630;2022-08-18T20:57:10;101284.53;;;19.37
27715;BMP280;16051;53.024;8.630;2022-08-18T21:01:12;101288.84;;;19.38
27715;BMP280;16051;53.024;8.630;2022-08-18T21:05:23;101278.72;;;19.29
27715;BMP280;16051;53.024;8.630;2022-08-18T21:09:27;101293.97;;;19.28
27715;BMP280;16051;53.024;8.630;2022-08-18T21:13:36;101283.59;;;19.23
27715;BMP280;16051;53.024;8.630;2022-08-18T21:17:56;101286.66;;;19.20
27715;BMP280;16051;53.024;8.630;2022-08-18T21:22:01;101288.47;;;19.17
27715;BMP280;16051;53.024;8.630;2022-08-18T21:26:07;101283.66;;;19.12
27715;BMP280;16051;53.024;8.630;2022-08-18T21:30:18;101276.81;;;19.07
27715;BMP280;16051;53.024;8.630;2022-08-18T21:34:31;101269.94;;;19.03
27715;BMP280;16051;53.024;8.630;2022-08-18T21:38:34;101286.78;;;18.97
27715;BMP280;16051;53.024;8.630;2022-08-18T21:42:43;101279.16;;;18.92
27715;BMP280;16051;53.024;8.630;2022-08-18T21:46:48;101298.03;;;18.86
27715;BMP280;16051;53.024;8.630;2022-08-18T21:50:57;101307.16;;;18.92
27715;BMP280;16051;53.024;8.630;2022-08-18T21:55:15;101289.41;;;18.84
27715;BMP280;16051;53.024;8.630;2022-08-18T21:59:20;101304.94;;;18.74
27715;BMP280;16051;53.024;8.630;2022-08-18T22:03:26;101296.06;;;18.64
27715;BMP280;16051;53.024;8.630;2022-08-18T22:07:32;101295.34;;;18.58
27715;BMP280;16051;53.024;8.630;2022-08-18T22:12:21;101305.03;;;18.52
27715;BMP280;16051;53.024;8.630;2022-08-18T22:16:42;101309.81;;;18.46
27715;BMP280;16051;53.024;8.630;2022-08-18T22:20:47;101297.63;;;18.43
27715;BMP280;16051;53.024;8.630;2022-08-18T22:24:56;101303.72;;;18.42
27715;BMP280;16051;53.024;8.630;2022-08-18T22:29:09;101301.47;;;18.40
27715;BMP280;16051;53.024;8.630;2022-08-18T22:33:12;101291.31;;;18.32
27715;BMP280;16051;53.024;8.630;2022-08-18T22:37:20;101286.97;;;18.31
27715;BMP280;16051;53.024;8.630;2022-08-18T22:41:23;101299.94;;;18.28
27715;BMP280;16051;53.024;8.630;2022-08-18T22:45:25;101293.34;;;18.26
27715;BMP280;16051;53.024;8.630;2022-08-18T22:49:27;101295.13;;;18.17
27715;BMP280;16051;53.024;8.630;2022-08-18T22:53:31;101297.44;;;18.13
27715;BMP280;16051;53.024;8.630;2022-08-18T22:57:34;101299.47;;;18.13
27715;BMP280;16051;53.024;8.630;2022-08-18T23:01:37;101303.81;;;18.08
27715;BMP280;16051;53.024;8.630;2022-08-18T23:05:58;101311.91;;;18.06
27715;BMP280;16051;53.024;8.630;2022-08-18T23:10:04;101310.38;;;18.05
27715;BMP280;16051;53.024;8.630;2022-08-18T23:14:07;101315.72;;;18.09
27715;BMP280;16051;53.024;8.630;2022-08-18T23:18:19;101312.16;;;18.14
27715;BMP280;16051;53.024;8.630;2022-08-18T23:22:21;101310.66;;;18.07
27715;BMP280;16051;53.024;8.630;2022-08-18T23:26:24;101308.88;;;17.99
27715;BMP280;16051;53.024;8.630;2022-08-18T23:30:48;101304.06;;;17.94
27715;BMP280;16051;53.024;8.630;2022-08-18T23:34:51;101321.09;;;17.90
27715;BMP280;16051;53.024;8.630;2022-08-18T23:38:53;101323.09;;;17.84
27715;BMP280;16051;53.024;8.630;2022-08-18T23:42:57;101312.44;;;17.83
27715;BMP280;16051;53.024;8.630;2022-08-18T23:46:59;101305.09;;;17.80
27715;BMP280;16051;53.024;8.630;2022-08-18T23:51:01;101296.19;;;17.76
27715;BMP280;16051;53.024;8.630;2022-08-18T23:55:32;101276.09;;;17.77
27715;BMP280;16051;53.024;8.630;2022-08-18T23:59:36;101278.41;;;17.79
